Time;durP1;ratioP1;P1;durP2;ratioP2;P2;SDS_P1;SDS_P2;PMS_P1;PMS_P2;Temp;Humidity;BMP_temperature;BMP_pressure;BME280_temperature;BME280_humidity;BME280_pressure;Samples;Min_cycle;Max_cycle;Signal;HPM_P1;HPM_P2
2022/09/10 00:01:14;;;;;;;;;;;23.60;95.60;;;;;;5014087;28;20747;-52
2022/09/10 00:03:44;;;;;;;;;;;23.60;95.60;;;;;;5021049;28;19925;-52
2022/09/10 00:06:11;;;;;;;;;;;23.60;95.60;;;;;;5015124;28;19926;-54
2022/09/10 00:08:38;;;;;;;;;;;23.60;95.70;;;;;;5025468;28;19930;-55
2022/09/10 00:11:07;;;;;;;;;;;23.60;95.70;;;;;;5024081;28;19929;-53
2022/09/10 00:13:36;;;;;;;;;;;23.60;95.70;;;;;;5017128;28;19926;-50
2022/09/10 00:16:04;;;;;;;;;;;23.60;95.60;;;;;;5026021;28;19925;-52
2022/09/10 00:18:32;;;;;;;;;;;23.60;95.70;;;;;;5019721;28;20331;-55
2022/09/10 00:20:59;;;;;;;;;;;23.60;95.70;;;;;;5018892;28;19930;-50
2022/09/10 00:23:27;;;;;;;;;;;23.60;95.80;;;;;;5021808;28;19929;-51
2022/09/10 00:25:56;;;;;;;;;;;23.60;95.70;;;;;;5023594;28;20294;-53
2022/09/10 00:28:25;;;;;;;;;;;23.60;95.90;;;;;;5009888;28;19987;-54
2022/09/10 00:30:53;;;;;;;;;;;23.60;96.00;;;;;;5021420;28;20322;-49
2022/09/10 00:33:22;;;;;;;;;;;23.60;96.00;;;;;;5029227;28;19936;-53
2022/09/10 00:35:49;;;;;;;;;;;23.60;96.00;;;;;;5003182;28;20301;-51
2022/09/10 00:38:17;;;;;;;;;;;23.60;96.00;;;;;;5023053;28;19940;-55
2022/09/10 00:40:44;;;;;;;;;;;23.60;96.00;;;;;;5013454;28;19929;-53
2022/09/10 00:43:19;;;;;;;;;;;23.60;96.00;;;;;;5009643;28;19936;-55
2022/09/10 00:45:48;;;;;;;;;;;23.60;96.00;;;;;;5029814;28;19933;-50
2022/09/10 00:48:17;;;;;;;;;;;23.60;96.00;;;;;;5023316;28;20004;-50
2022/09/10 00:50:45;;;;;;;;;;;23.60;96.00;;;;;;5026681;28;19936;-51
2022/09/10 00:53:16;;;;;;;;;;;23.60;96.00;;;;;;5008618;28;19933;-49
2022/09/10 00:55:45;;;;;;;;;;;23.60;96.00;;;;;;5023797;28;19929;-53
2022/09/10 00:58:14;;;;;;;;;;;23.60;96.00;;;;;;5022574;28;19925;-53
2022/09/10 01:00:41;;;;;;;;;;;23.60;96.00;;;;;;5020432;28;20404;-53
2022/09/10 01:03:10;;;;;;;;;;;23.60;96.00;;;;;;5024801;28;19936;-51
2022/09/10 01:05:38;;;;;;;;;;;23.60;96.10;;;;;;5025972;28;19932;-56
2022/09/10 01:08:05;;;;;;;;;;;23.60;96.00;;;;;;5011400;28;19933;-53
2022/09/10 01:10:39;;;;;;;;;;;23.60;96.10;;;;;;5017960;28;19937;-51
2022/09/10 01:13:06;;;;;;;;;;;23.50;96.10;;;;;;5006092;28;19929;-50
2022/09/10 01:15:47;;;;;;;;;;;23.60;96.10;;;;;;4999947;28;20309;-52
2022/09/10 01:18:27;;;;;;;;;;;23.50;96.10;;;;;;5011725;28;19933;-54
2022/09/10 01:21:00;;;;;;;;;;;23.50;96.10;;;;;;5028013;28;19940;-53
2022/09/10 01:23:45;;;;;;;;;;;23.50;96.10;;;;;;5025473;28;19925;-51
2022/09/10 01:26:26;;;;;;;;;;;23.60;96.20;;;;;;5024933;28;19929;-50
2022/09/10 01:29:01;;;;;;;;;;;23.50;96.10;;;;;;5023753;28;19929;-50
2022/09/10 01:31:35;;;;;;;;;;;23.60;96.10;;;;;;5006626;28;19926;-50
2022/09/10 01:34:15;;;;;;;;;;;23.50;96.10;;;;;;5017748;28;19948;-50
2022/09/10 01:36:44;;;;;;;;;;;23.50;96.10;;;;;;5024860;28;19926;-51
2022/09/10 01:39:11;;;;;;;;;;;23.50;96.20;;;;;;5005187;28;19948;-54
2022/09/10 01:41:39;;;;;;;;;;;23.50;96.20;;;;;;5020694;28;19925;-52
2022/09/10 01:44:29;;;;;;;;;;;23.50;96.20;;;;;;5011525;28;19929;-54
2022/09/10 01:47:08;;;;;;;;;;;23.50;96.20;;;;;;5011638;28;20432;-48
2022/09/10 01:49:35;;;;;;;;;;;23.50;96.20;;;;;;5022791;28;20412;-51
2022/09/10 01:52:24;;;;;;;;;;;23.50;96.20;;;;;;5005130;28;19934;-55
2022/09/10 01:54:55;;;;;;;;;;;23.50;96.20;;;;;;5000546;28;19925;-51
2022/09/10 01:57:38;;;;;;;;;;;23.50;96.20;;;;;;5006989;28;19929;-52
2022/09/10 02:00:08;;;;;;;;;;;23.50;96.20;;;;;;4997908;28;19930;-55
2022/09/10 02:03:00;;;;;;;;;;;23.50;96.20;;;;;;5026954;28;19932;-51
2022/09/10 02:05:34;;;;;;;;;;;23.50;96.20;;;;;;5025378;28;19925;-52
2022/09/10 02:08:09;;;;;;;;;;;23.50;96.30;;;;;;5016940;28;19930;-51
2022/09/10 02:10:54;;;;;;;;;;;23.50;96.30;;;;;;5008595;28;20396;-54
2022/09/10 02:13:29;;;;;;;;;;;23.40;96.30;;;;;;5015504;28;19933;-48
2022/09/10 02:16:29;;;;;;;;;;;23.50;96.30;;;;;;5027227;28;20385;-49
2022/09/10 02:18:58;;;;;;;;;;;23.50;96.30;;;;;;5001531;28;20309;-52
2022/09/10 02:21:25;;;;;;;;;;;23.50;96.30;;;;;;5004711;28;19957;-49
2022/09/10 02:23:56;;;;;;;;;;;23.40;96.30;;;;;;5021528;28;19937;-50
2022/09/10 02:26:24;;;;;;;;;;;23.40;96.30;;;;;;5027238;28;19936;-53
2022/09/10 02:28:53;;;;;;;;;;;23.40;96.30;;;;;;5027715;28;19925;-55
2022/09/10 02:31:21;;;;;;;;;;;23.50;96.30;;;;;;5010925;28;19929;-54
2022/09/10 02:33:50;;;;;;;;;;;23.40;96.20;;;;;;5002504;28;19929;-53
2022/09/10 02:36:17;;;;;;;;;;;23.40;96.30;;;;;;5023001;28;19944;-52
2022/09/10 02:38:44;;;;;;;;;;;23.40;96.30;;;;;;5011855;28;20400;-53
2022/09/10 02:41:14;;;;;;;;;;;23.50;96.30;;;;;;5023258;28;19932;-51
2022/09/10 02:43:41;;;;;;;;;;;23.50;96.30;;;;;;5005294;28;20251;-52
2022/09/10 02:46:08;;;;;;;;;;;23.40;96.30;;;;;;5014605;28;19932;-53
2022/09/10 02:48:37;;;;;;;;;;;23.40;96.30;;;;;;5020646;28;20277;-51
2022/09/10 02:51:05;;;;;;;;;;;23.40;96.30;;;;;;5011243;28;20431;-49
2022/09/10 02:53:32;;;;;;;;;;;23.40;96.30;;;;;;5029541;28;19933;-48
2022/09/10 02:56:03;;;;;;;;;;;23.40;96.40;;;;;;5028269;28;19944;-52
2022/09/10 02:58:30;;;;;;;;;;;23.40;96.30;;;;;;5021744;28;19925;-48
2022/09/10 03:01:24;;;;;;;;;;;23.40;96.30;;;;;;5016590;28;19936;-50
2022/09/10 03:03:59;;;;;;;;;;;23.40;96.30;;;;;;5026081;28;19933;-54
2022/09/10 03:06:28;;;;;;;;;;;23.40;96.30;;;;;;5010220;28;19929;-53
2022/09/10 03:08:57;;;;;;;;;;;23.40;96.30;;;;;;5024140;28;19964;-51
2022/09/10 03:11:26;;;;;;;;;;;23.40;96.30;;;;;;5018953;28;19929;-54
2022/09/10 03:13:53;;;;;;;;;;;23.40;96.30;;;;;;5003483;28;19929;-52
2022/09/10 03:16:22;;;;;;;;;;;23.40;96.30;;;;;;5027890;28;20308;-50
2022/09/10 03:18:51;;;;;;;;;;;23.40;96.30;;;;;;5024484;28;19929;-55
2022/09/10 03:21:19;;;;;;;;;;;23.40;96.30;;;;;;5021532;28;19932;-52
2022/09/10 03:23:48;;;;;;;;;;;23.40;96.20;;;;;;5015509;28;19930;-53
2022/09/10 03:26:20;;;;;;;;;;;23.40;96.30;;;;;;5007331;28;19925;-53
2022/09/10 03:28:48;;;;;;;;;;;23.40;96.30;;;;;;5021177;28;19936;-48
2022/09/10 03:31:18;;;;;;;;;;;23.40;96.40;;;;;;5010916;28;19932;-53
2022/09/10 03:33:48;;;;;;;;;;;23.40;96.30;;;;;;5009379;28;20679;-54
2022/09/10 03:36:16;;;;;;;;;;;23.40;96.30;;;;;;5009204;28;19929;-51
2022/09/10 03:38:46;;;;;;;;;;;23.40;96.30;;;;;;5009221;28;19929;-48
2022/09/10 03:41:13;;;;;;;;;;;23.40;96.40;;;;;;5014559;28;19929;-51
2022/09/10 03:43:40;;;;;;;;;;;23.40;96.60;;;;;;5027260;28;20420;-52
2022/09/10 03:46:10;;;;;;;;;;;23.40;96.40;;;;;;5024339;28;19932;-51
2022/09/10 03:48:39;;;;;;;;;;;23.30;96.30;;;;;;5002302;28;20506;-52
2022/09/10 03:51:09;;;;;;;;;;;23.40;96.40;;;;;;5001247;28;20596;-52
2022/09/10 03:53:37;;;;;;;;;;;23.40;96.40;;;;;;5011096;28;19930;-52
2022/09/10 03:56:06;;;;;;;;;;;23.40;96.40;;;;;;5014856;28;19925;-54
2022/09/10 03:58:34;;;;;;;;;;;23.30;96.40;;;;;;5005141;28;19929;-51
2022/09/10 04:01:02;;;;;;;;;;;23.30;96.40;;;;;;5006246;28;19929;-55
2022/09/10 04:03:31;;;;;;;;;;;23.30;96.40;;;;;;5022350;28;19933;-49
2022/09/10 04:05:58;;;;;;;;;;;23.30;96.40;;;;;;5024346;28;19935;-54
2022/09/10 04:08:25;;;;;;;;;;;23.30;96.40;;;;;;5015580;28;20313;-53
2022/09/10 04:10:55;;;;;;;;;;;23.30;96.40;;;;;;5027270;28;19955;-51
2022/09/10 04:13:23;;;;;;;;;;;23.30;96.40;;;;;;4996384;28;19936;-55
2022/09/10 04:15:50;;;;;;;;;;;23.30;96.40;;;;;;5004714;28;19948;-49
2022/09/10 04:18:17;;;;;;;;;;;23.30;96.40;;;;;;5020941;28;19933;-49
2022/09/10 04:20:46;;;;;;;;;;;23.30;96.40;;;;;;5021455;28;20419;-52
2022/09/10 04:23:14;;;;;;;;;;;23.30;96.40;;;;;;5015717;28;19929;-48
2022/09/10 04:25:42;;;;;;;;;;;23.30;96.40;;;;;;5020991;28;20422;-52
2022/09/10 04:28:10;;;;;;;;;;;23.30;96.40;;;;;;5023540;28;19932;-52
2022/09/10 04:30:37;;;;;;;;;;;23.30;96.40;;;;;;5015965;28;19948;-50
2022/09/10 04:33:04;;;;;;;;;;;23.30;96.40;;;;;;5024245;28;20392;-51
2022/09/10 04:35:32;;;;;;;;;;;23.30;96.40;;;;;;5018196;28;19929;-50
2022/09/10 04:38:02;;;;;;;;;;;23.30;96.40;;;;;;4987018;28;20314;-51
2022/09/10 04:40:29;;;;;;;;;;;23.30;96.40;;;;;;4997309;28;20385;-54
2022/09/10 04:42:56;;;;;;;;;;;23.30;96.40;;;;;;5018903;28;19925;-52
2022/09/10 04:45:24;;;;;;;;;;;23.30;96.40;;;;;;5022047;28;19929;-49
2022/09/10 04:47:53;;;;;;;;;;;23.30;96.40;;;;;;5021990;28;19925;-51
2022/09/10 04:50:20;;;;;;;;;;;23.30;96.40;;;;;;5023108;28;19929;-49
2022/09/10 04:53:20;;;;;;;;;;;23.30;96.40;;;;;;5015826;28;20293;-50
2022/09/10 04:55:48;;;;;;;;;;;23.30;96.40;;;;;;4993182;28;19929;-56
2022/09/10 04:58:15;;;;;;;;;;;23.30;96.40;;;;;;5014893;28;19925;-52
2022/09/10 05:00:44;;;;;;;;;;;23.30;96.40;;;;;;5021120;28;19944;-50
2022/09/10 05:03:12;;;;;;;;;;;23.30;96.40;;;;;;5003710;28;19925;-52
2022/09/10 05:05:45;;;;;;;;;;;23.30;96.40;;;;;;5016564;28;19925;-54
2022/09/10 05:08:13;;;;;;;;;;;23.30;96.40;;;;;;5023511;28;19936;-52
2022/09/10 05:10:45;;;;;;;;;;;23.30;96.40;;;;;;5017968;28;19933;-48
2022/09/10 05:13:12;;;;;;;;;;;23.30;96.50;;;;;;5023722;28;19932;-54
2022/09/10 05:15:40;;;;;;;;;;;23.30;96.40;;;;;;5007529;28;19933;-48
2022/09/10 05:18:08;;;;;;;;;;;23.30;96.40;;;;;;4978806;28;20665;-52
2022/09/10 05:20:37;;;;;;;;;;;23.30;96.40;;;;;;5007581;28;19959;-52
2022/09/10 05:23:04;;;;;;;;;;;23.30;96.40;;;;;;5004498;28;20364;-49
2022/09/10 05:25:33;;;;;;;;;;;23.30;96.40;;;;;;5021804;28;19925;-54
2022/09/10 05:28:00;;;;;;;;;;;23.20;96.40;;;;;;5014885;28;19925;-56
2022/09/10 05:30:31;;;;;;;;;;;23.30;96.40;;;;;;5029687;28;19944;-54
2022/09/10 05:32:59;;;;;;;;;;;23.20;96.40;;;;;;5009257;28;19940;-50
2022/09/10 05:35:29;;;;;;;;;;;23.30;96.40;;;;;;5003005;28;20378;-53
2022/09/10 05:37:57;;;;;;;;;;;23.30;96.40;;;;;;5022276;28;19925;-53
2022/09/10 05:40:24;;;;;;;;;;;23.30;96.40;;;;;;5008248;28;20419;-48
2022/09/10 05:42:53;;;;;;;;;;;23.30;96.40;;;;;;5004382;28;20970;-53
2022/09/10 05:45:22;;;;;;;;;;;23.20;96.40;;;;;;5009219;28;19929;-54
2022/09/10 05:47:51;;;;;;;;;;;23.30;96.40;;;;;;5015884;28;19936;-52
2022/09/10 05:50:21;;;;;;;;;;;23.30;96.40;;;;;;5012577;28;19933;-54
2022/09/10 05:52:49;;;;;;;;;;;23.30;96.30;;;;;;5015153;28;19925;-53
2022/09/10 05:55:17;;;;;;;;;;;23.30;96.30;;;;;;5012843;28;20093;-51
2022/09/10 05:57:46;;;;;;;;;;;23.30;96.40;;;;;;5009664;28;19940;-52
2022/09/10 06:00:16;;;;;;;;;;;23.20;96.40;;;;;;5009926;28;19925;-54
2022/09/10 06:02:52;;;;;;;;;;;23.20;96.30;;;;;;5006586;28;20428;-55
2022/09/10 06:05:27;;;;;;;;;;;23.20;96.30;;;;;;5016278;28;19926;-54
2022/09/10 06:07:55;;;;;;;;;;;23.20;96.30;;;;;;5021336;28;20717;-48
2022/09/10 06:10:23;;;;;;;;;;;23.20;96.30;;;;;;5008983;28;19929;-52
2022/09/10 06:12:51;;;;;;;;;;;23.30;96.30;;;;;;5002517;28;19929;-49
2022/09/10 06:15:20;;;;;;;;;;;23.30;96.30;;;;;;5031946;23;19933;-52
2022/09/10 06:17:48;;;;;;;;;;;23.30;96.30;;;;;;5022616;28;20415;-53
2022/09/10 06:20:16;;;;;;;;;;;23.30;96.40;;;;;;5023083;28;19929;-53
2022/09/10 06:22:45;;;;;;;;;;;23.30;96.40;;;;;;5018689;28;19929;-50
2022/09/10 06:25:12;;;;;;;;;;;23.30;96.40;;;;;;5025025;28;19925;-56
2022/09/10 06:27:40;;;;;;;;;;;23.30;96.20;;;;;;5026641;28;19936;-60
2022/09/10 06:30:07;;;;;;;;;;;23.30;96.00;;;;;;5026493;28;19932;-59
2022/09/10 06:32:38;;;;;;;;;;;23.30;95.80;;;;;;5023497;28;19936;-54
2022/09/10 06:35:08;;;;;;;;;;;23.20;95.70;;;;;;5027351;28;19933;-57
2022/09/10 06:37:36;;;;;;;;;;;23.20;95.50;;;;;;5028670;28;20866;-55
2022/09/10 06:40:06;;;;;;;;;;;23.20;95.40;;;;;;5025047;28;19936;-54
2022/09/10 06:42:34;;;;;;;;;;;23.20;95.80;;;;;;5026555;28;19936;-51
2022/09/10 06:45:07;;;;;;;;;;;23.20;95.60;;;;;;5025719;28;19933;-57
2022/09/10 06:47:55;;;;;;;;;;;23.10;95.50;;;;;;5022765;28;19933;-57
2022/09/10 06:50:52;;;;;;;;;;;23.10;95.50;;;;;;5026976;28;20659;-49
2022/09/10 06:53:22;;;;;;;;;;;23.10;95.30;;;;;;5022885;28;19929;-54
2022/09/10 06:55:53;;;;;;;;;;;23.10;95.00;;;;;;5022943;28;20403;-50
2022/09/10 06:58:23;;;;;;;;;;;23.10;94.90;;;;;;5022040;28;19932;-49
2022/09/10 07:00:51;;;;;;;;;;;23.10;94.80;;;;;;5024370;28;19929;-52
2022/09/10 07:03:20;;;;;;;;;;;23.10;94.90;;;;;;5027942;28;19925;-53
2022/09/10 07:05:49;;;;;;;;;;;23.10;94.90;;;;;;5025666;28;19937;-52
2022/09/10 07:08:16;;;;;;;;;;;23.20;95.10;;;;;;5029960;28;20088;-52
2022/09/10 07:10:49;;;;;;;;;;;23.20;94.80;;;;;;5024508;28;19929;-52
2022/09/10 07:13:16;;;;;;;;;;;23.20;94.90;;;;;;5028420;28;19948;-51
2022/09/10 07:15:45;;;;;;;;;;;23.20;95.00;;;;;;5027044;28;19945;-54
2022/09/10 07:18:13;;;;;;;;;;;23.20;95.20;;;;;;5043923;28;20409;-53
2022/09/10 07:20:42;;;;;;;;;;;23.20;95.20;;;;;;5038137;28;19929;-52
2022/09/10 07:23:13;;;;;;;;;;;23.20;95.30;;;;;;5025125;28;20472;-51
2022/09/10 07:25:41;;;;;;;;;;;23.20;95.20;;;;;;5025218;28;19929;-56
2022/09/10 07:28:16;;;;;;;;;;;23.20;95.10;;;;;;5026926;28;20599;-57
2022/09/10 07:30:46;;;;;;;;;;;23.30;95.20;;;;;;5030084;28;19929;-56
2022/09/10 07:33:14;;;;;;;;;;;23.20;95.30;;;;;;5025511;28;19929;-54
2022/09/10 07:35:43;;;;;;;;;;;23.20;95.30;;;;;;5029289;28;20312;-55
2022/09/10 07:38:16;;;;;;;;;;;23.20;95.30;;;;;;5026404;28;19929;-53
2022/09/10 07:40:46;;;;;;;;;;;23.20;95.40;;;;;;5006807;28;20472;-59
2022/09/10 07:43:14;;;;;;;;;;;23.30;95.70;;;;;;5025631;28;19929;-55
2022/09/10 07:45:42;;;;;;;;;;;23.30;95.50;;;;;;5028247;28;19925;-56
2022/09/10 07:48:10;;;;;;;;;;;23.30;96.50;;;;;;5042176;28;20304;-58
2022/09/10 07:50:38;;;;;;;;;;;23.40;96.80;;;;;;5026591;28;19948;-62
2022/09/10 07:53:05;;;;;;;;;;;23.40;97.20;;;;;;5028567;28;19936;-55
2022/09/10 07:55:34;;;;;;;;;;;23.40;97.60;;;;;;5037901;28;19960;-55
2022/09/10 07:58:01;;;;;;;;;;;23.40;97.10;;;;;;5028252;28;19926;-56
2022/09/10 08:00:30;;;;;;;;;;;23.40;97.20;;;;;;5023709;28;19929;-57
2022/09/10 08:03:03;;;;;;;;;;;23.40;97.10;;;;;;5036472;28;19933;-60
2022/09/10 08:05:31;;;;;;;;;;;23.40;96.80;;;;;;5042469;28;19925;-58
2022/09/10 08:08:00;;;;;;;;;;;23.40;96.70;;;;;;5040425;28;19929;-56
2022/09/10 08:10:28;;;;;;;;;;;23.30;96.50;;;;;;5038565;28;20479;-57
2022/09/10 08:12:56;;;;;;;;;;;23.30;96.40;;;;;;5034050;28;19936;-56
2022/09/10 08:15:23;;;;;;;;;;;23.20;96.20;;;;;;5038360;28;19936;-57
2022/09/10 08:17:51;;;;;;;;;;;23.20;96.10;;;;;;5027354;28;19925;-57
2022/09/10 08:20:23;;;;;;;;;;;23.10;96.00;;;;;;5031731;28;19948;-57
2022/09/10 08:22:50;;;;;;;;;;;23.10;96.00;;;;;;5027098;28;19935;-57
2022/09/10 08:25:19;;;;;;;;;;;23.00;95.80;;;;;;5037523;28;19956;-56
2022/09/10 08:27:47;;;;;;;;;;;23.10;95.80;;;;;;5041801;28;20327;-55
2022/09/10 08:30:15;;;;;;;;;;;23.00;95.60;;;;;;5041145;28;19940;-54
2022/09/10 08:32:42;;;;;;;;;;;23.10;95.50;;;;;;5036195;28;19932;-56
2022/09/10 08:35:13;;;;;;;;;;;23.10;95.50;;;;;;5034208;28;19936;-57
2022/09/10 08:37:41;;;;;;;;;;;23.10;95.40;;;;;;5026959;28;19929;-56
2022/09/10 08:40:11;;;;;;;;;;;23.10;95.40;;;;;;5022775;28;19951;-59
2022/09/10 08:42:42;;;;;;;;;;;23.10;95.40;;;;;;5047145;28;19929;-54
2022/09/10 08:45:14;;;;;;;;;;;23.10;95.40;;;;;;5019676;28;19924;-58
2022/09/10 08:48:05;;;;;;;;;;;23.10;95.30;;;;;;5047526;28;19929;-58
2022/09/10 08:50:43;;;;;;;;;;;23.10;95.30;;;;;;5045284;28;19940;-57
2022/09/10 08:53:26;;;;;;;;;;;23.10;95.30;;;;;;5036257;28;19928;-57
2022/09/10 08:56:01;;;;;;;;;;;23.10;95.30;;;;;;5040861;28;19940;-54
2022/09/10 08:58:36;;;;;;;;;;;23.10;95.30;;;;;;5040118;28;19936;-57
2022/09/10 09:01:05;;;;;;;;;;;23.10;95.30;;;;;;5036862;28;19928;-58
2022/09/10 09:03:44;;;;;;;;;;;23.10;95.30;;;;;;5056289;28;19925;-59
2022/09/10 09:06:23;;;;;;;;;;;23.10;95.20;;;;;;5047328;28;19936;-59
2022/09/10 09:08:51;;;;;;;;;;;23.20;95.20;;;;;;5023075;28;20639;-60
2022/09/10 09:11:27;;;;;;;;;;;23.20;95.40;;;;;;5014756;28;20428;-58
2022/09/10 09:13:54;;;;;;;;;;;23.20;95.00;;;;;;5029304;28;19925;-58
2022/09/10 09:16:21;;;;;;;;;;;23.20;95.00;;;;;;5045912;28;20404;-53
2022/09/10 09:18:50;;;;;;;;;;;23.20;95.00;;;;;;5024081;28;19936;-55
2022/09/10 09:21:25;;;;;;;;;;;23.20;95.00;;;;;;5046986;28;19948;-55
2022/09/10 09:23:55;;;;;;;;;;;23.20;95.00;;;;;;5021339;28;20289;-57
2022/09/10 09:26:48;;;;;;;;;;;23.20;94.90;;;;;;5030144;28;19936;-58
2022/09/10 09:29:27;;;;;;;;;;;23.20;94.90;;;;;;5027339;28;19936;-57
2022/09/10 09:31:57;;;;;;;;;;;23.20;94.90;;;;;;5030740;28;19929;-57
2022/09/10 09:34:43;;;;;;;;;;;23.20;94.90;;;;;;5027182;28;19933;-57
2022/09/10 09:37:28;;;;;;;;;;;23.20;94.90;;;;;;5028613;28;19956;-54
2022/09/10 09:40:08;;;;;;;;;;;23.20;94.90;;;;;;5019817;28;19929;-56
2022/09/10 09:42:56;;;;;;;;;;;23.20;94.90;;;;;;5040942;28;19928;-55
2022/09/10 09:45:28;;;;;;;;;;;23.20;94.90;;;;;;5047615;28;19944;-57
2022/09/10 09:47:57;;;;;;;;;;;23.10;94.80;;;;;;5044946;28;19929;-56
2022/09/10 09:50:24;;;;;;;;;;;23.20;94.90;;;;;;5028880;28;19925;-60
2022/09/10 09:52:53;;;;;;;;;;;23.10;94.80;;;;;;5047972;28;19948;-57
2022/09/10 09:55:29;;;;;;;;;;;23.20;94.90;;;;;;5042483;28;19929;-59
2022/09/10 09:58:16;;;;;;;;;;;23.10;94.80;;;;;;5044401;28;19929;-57
2022/09/10 10:00:43;;;;;;;;;;;23.20;94.80;;;;;;5041148;28;19928;-56
2022/09/10 10:03:16;;;;;;;;;;;23.20;94.80;;;;;;5053470;28;19929;-59
2022/09/10 10:05:43;;;;;;;;;;;23.20;94.80;;;;;;5044900;28;20631;-56
2022/09/10 10:08:27;;;;;;;;;;;23.20;94.70;;;;;;5030061;28;19928;-58
2022/09/10 10:10:54;;;;;;;;;;;23.20;94.70;;;;;;5038828;28;19929;-54
2022/09/10 10:13:22;;;;;;;;;;;23.20;94.70;;;;;;5046201;28;19941;-58
2022/09/10 10:15:49;;;;;;;;;;;23.10;94.70;;;;;;5042766;28;20324;-56
2022/09/10 10:18:27;;;;;;;;;;;23.10;94.70;;;;;;5046964;28;20012;-57
2022/09/10 10:21:10;;;;;;;;;;;23.20;94.70;;;;;;5060356;28;19925;-59
2022/09/10 10:23:37;;;;;;;;;;;23.20;94.60;;;;;;5063171;28;19925;-60
2022/09/10 10:26:16;;;;;;;;;;;23.20;94.60;;;;;;5052381;28;19931;-59
2022/09/10 10:28:45;;;;;;;;;;;23.20;94.50;;;;;;5031409;28;19929;-59
2022/09/10 10:31:12;;;;;;;;;;;23.20;94.50;;;;;;5049789;28;19936;-58
2022/09/10 10:34:00;;;;;;;;;;;23.20;94.50;;;;;;5048248;28;19935;-55
2022/09/10 10:36:40;;;;;;;;;;;23.30;94.50;;;;;;5048464;28;19929;-59
2022/09/10 10:39:33;;;;;;;;;;;23.30;94.50;;;;;;5050808;28;19936;-59
2022/09/10 10:42:04;;;;;;;;;;;23.30;94.50;;;;;;5041549;28;19932;-57
2022/09/10 10:44:31;;;;;;;;;;;23.30;94.50;;;;;;5047761;28;19925;-58
2022/09/10 10:46:58;;;;;;;;;;;23.30;94.40;;;;;;5051448;28;19960;-58
2022/09/10 10:49:43;;;;;;;;;;;23.30;94.40;;;;;;5049679;28;19925;-57
2022/09/10 10:52:29;;;;;;;;;;;23.30;94.40;;;;;;5045128;28;19952;-57
2022/09/10 10:55:08;;;;;;;;;;;23.30;94.40;;;;;;5035170;28;20664;-57
2022/09/10 10:57:50;;;;;;;;;;;23.30;94.40;;;;;;5042903;28;19932;-59
2022/09/10 11:00:18;;;;;;;;;;;23.30;94.30;;;;;;5050402;28;19933;-61
2022/09/10 11:02:53;;;;;;;;;;;23.30;94.30;;;;;;5045171;28;20332;-56
2022/09/10 11:05:37;;;;;;;;;;;23.30;94.30;;;;;;5032368;28;20363;-57
2022/09/10 11:08:11;;;;;;;;;;;23.30;94.30;;;;;;5040946;28;19928;-60
2022/09/10 11:10:40;;;;;;;;;;;23.30;94.30;;;;;;5040684;28;19933;-58
2022/09/10 11:13:16;;;;;;;;;;;23.30;94.30;;;;;;5049284;28;19924;-56
2022/09/10 11:15:45;;;;;;;;;;;23.30;94.30;;;;;;5059125;28;19924;-57
2022/09/10 11:18:15;;;;;;;;;;;23.30;94.30;;;;;;5057064;28;19928;-58
2022/09/10 11:20:54;;;;;;;;;;;23.40;94.30;;;;;;5052461;28;19936;-57
2022/09/10 11:23:28;;;;;;;;;;;23.30;94.30;;;;;;5055004;28;20345;-56
2022/09/10 11:26:00;;;;;;;;;;;23.30;94.30;;;;;;5037079;28;20391;-58
2022/09/10 11:28:30;;;;;;;;;;;23.40;94.30;;;;;;5054089;28;19937;-60
2022/09/10 11:31:04;;;;;;;;;;;23.40;94.30;;;;;;5044803;28;19936;-57
2022/09/10 11:33:45;;;;;;;;;;;23.40;94.30;;;;;;5046824;28;19935;-54
2022/09/10 11:36:23;;;;;;;;;;;23.40;94.30;;;;;;5051125;28;19929;-55
2022/09/10 11:38:53;;;;;;;;;;;23.40;94.30;;;;;;5047641;28;19935;-55
2022/09/10 11:41:25;;;;;;;;;;;23.40;94.20;;;;;;5048764;28;19936;-56
2022/09/10 11:44:01;;;;;;;;;;;23.40;94.20;;;;;;5050488;28;20304;-58
2022/09/10 11:46:39;;;;;;;;;;;23.40;94.20;;;;;;5041965;28;19963;-55
2022/09/10 11:49:12;;;;;;;;;;;23.40;94.10;;;;;;5042100;28;19962;-59
2022/09/10 11:51:40;;;;;;;;;;;23.40;94.10;;;;;;5043471;28;19925;-59
2022/09/10 11:54:15;;;;;;;;;;;23.40;94.10;;;;;;5045338;28;20031;-59
2022/09/10 11:56:45;;;;;;;;;;;23.40;94.10;;;;;;5042584;28;19939;-60
2022/09/10 11:59:13;;;;;;;;;;;23.40;94.10;;;;;;5044746;28;19929;-57
2022/09/10 12:01:55;;;;;;;;;;;23.40;94.10;;;;;;5045967;28;19931;-57
2022/09/10 12:04:29;;;;;;;;;;;23.40;94.10;;;;;;5046372;28;19925;-56
2022/09/10 12:07:02;;;;;;;;;;;23.40;94.10;;;;;;5049787;28;20375;-58
2022/09/10 12:09:34;;;;;;;;;;;23.40;94.00;;;;;;5044572;28;19928;-57
2022/09/10 12:12:04;;;;;;;;;;;23.40;94.00;;;;;;5042844;28;19925;-57
2022/09/10 12:14:32;;;;;;;;;;;23.40;94.00;;;;;;5039066;28;19925;-60
2022/09/10 12:17:26;;;;;;;;;;;23.40;94.00;;;;;;5029644;28;19935;-58
2022/09/10 12:19:54;;;;;;;;;;;23.50;94.00;;;;;;5040823;28;20344;-56
2022/09/10 12:22:27;;;;;;;;;;;23.40;94.00;;;;;;5047594;28;19948;-56
2022/09/10 12:25:01;;;;;;;;;;;23.40;94.00;;;;;;5038016;28;20523;-58
2022/09/10 12:27:46;;;;;;;;;;;23.40;94.00;;;;;;5029824;28;19932;-58
2022/09/10 12:30:33;;;;;;;;;;;23.40;94.00;;;;;;5047438;28;19925;-56
2022/09/10 12:33:06;;;;;;;;;;;23.30;94.00;;;;;;5033608;28;19932;-58
2022/09/10 12:35:33;;;;;;;;;;;23.30;94.00;;;;;;5037051;28;19940;-68
2022/09/10 12:38:19;;;;;;;;;;;23.40;94.00;;;;;;5055450;28;19932;-67
2022/09/10 12:40:49;;;;;;;;;;;23.40;93.90;;;;;;5045540;28;19940;-59
2022/09/10 12:43:34;;;;;;;;;;;23.40;93.90;;;;;;5048122;28;19947;-57
2022/09/10 12:46:04;;;;;;;;;;;23.40;94.10;;;;;;5043163;28;19924;-61
2022/09/10 12:48:33;;;;;;;;;;;23.40;93.80;;;;;;5047877;28;19925;-58
2022/09/10 12:51:07;;;;;;;;;;;23.40;93.80;;;;;;5049415;28;19928;-58
2022/09/10 12:53:54;;;;;;;;;;;23.40;93.80;;;;;;5047966;28;19936;-59
2022/09/10 12:56:28;;;;;;;;;;;23.40;93.80;;;;;;5003551;28;19932;-60
2022/09/10 12:59:05;;;;;;;;;;;23.50;93.80;;;;;;5049525;28;19929;-58
2022/09/10 13:01:45;;;;;;;;;;;23.50;93.70;;;;;;5046484;28;19935;-57
2022/09/10 13:04:23;;;;;;;;;;;23.50;93.70;;;;;;5044644;28;19932;-59
2022/09/10 13:06:52;;;;;;;;;;;23.50;93.70;;;;;;5038997;28;19929;-54
2022/09/10 13:09:22;;;;;;;;;;;23.50;93.80;;;;;;5044281;28;19925;-56
2022/09/10 13:11:52;;;;;;;;;;;23.50;93.80;;;;;;5045679;28;19925;-57
2022/09/10 13:14:22;;;;;;;;;;;23.50;93.80;;;;;;5045707;28;19933;-59
2022/09/10 13:16:49;;;;;;;;;;;23.50;93.80;;;;;;5044108;28;19940;-60
2022/09/10 13:19:18;;;;;;;;;;;23.50;93.70;;;;;;5045790;28;19928;-58
2022/09/10 13:21:46;;;;;;;;;;;23.50;93.80;;;;;;5042827;28;19929;-59
2022/09/10 13:24:32;;;;;;;;;;;23.50;93.80;;;;;;5047607;28;20054;-59
2022/09/10 13:27:02;;;;;;;;;;;23.50;93.70;;;;;;5042241;28;20297;-58
2022/09/10 13:29:35;;;;;;;;;;;23.60;93.70;;;;;;5044110;28;19935;-58
2022/09/10 13:32:09;;;;;;;;;;;23.60;93.60;;;;;;5053143;28;19936;-57
2022/09/10 13:34:39;;;;;;;;;;;23.60;93.60;;;;;;5045405;28;20380;-54
2022/09/10 13:37:23;;;;;;;;;;;23.70;93.50;;;;;;5047526;28;19925;-58
2022/09/10 13:40:11;;;;;;;;;;;23.70;93.40;;;;;;5047333;28;19925;-56
2022/09/10 13:42:45;;;;;;;;;;;23.70;93.40;;;;;;5025903;28;20400;-58
2022/09/10 13:45:15;;;;;;;;;;;23.70;93.30;;;;;;5048797;28;20311;-57
2022/09/10 13:47:46;;;;;;;;;;;23.80;93.30;;;;;;5040258;28;19928;-58
2022/09/10 13:50:13;;;;;;;;;;;23.80;93.30;;;;;;5043571;28;20222;-56
2022/09/10 13:52:43;;;;;;;;;;;23.70;93.30;;;;;;5047174;28;19928;-55
2022/09/10 13:55:19;;;;;;;;;;;23.80;93.30;;;;;;5027984;28;20416;-57
2022/09/10 13:57:50;;;;;;;;;;;23.80;93.30;;;;;;5045099;28;19928;-56
2022/09/10 14:00:23;;;;;;;;;;;23.70;93.30;;;;;;5024452;28;19936;-57
2022/09/10 14:02:51;;;;;;;;;;;23.70;93.30;;;;;;5044258;28;19929;-59
2022/09/10 14:05:22;;;;;;;;;;;23.70;93.30;;;;;;5042816;28;19939;-58
2022/09/10 14:07:49;;;;;;;;;;;23.60;93.40;;;;;;5034735;28;19925;-56
2022/09/10 14:10:17;;;;;;;;;;;23.60;93.40;;;;;;5039744;28;19925;-59
2022/09/10 14:12:45;;;;;;;;;;;23.60;93.40;;;;;;5040372;28;20426;-55
2022/09/10 14:15:15;;;;;;;;;;;23.60;93.40;;;;;;5028503;28;19932;-57
2022/09/10 14:17:46;;;;;;;;;;;23.60;93.40;;;;;;5043291;28;19929;-57
2022/09/10 14:20:16;;;;;;;;;;;23.60;93.40;;;;;;5044366;28;20296;-56
2022/09/10 14:22:44;;;;;;;;;;;23.50;93.40;;;;;;5037515;28;19947;-54
2022/09/10 14:25:31;;;;;;;;;;;23.50;93.40;;;;;;5043258;28;19935;-58
2022/09/10 14:28:18;;;;;;;;;;;23.60;93.40;;;;;;5046875;28;19939;-56
2022/09/10 14:30:48;;;;;;;;;;;23.50;93.60;;;;;;5051967;28;19936;-57
2022/09/10 14:33:27;;;;;;;;;;;23.50;93.40;;;;;;5044758;28;19925;-60
2022/09/10 14:35:56;;;;;;;;;;;23.50;93.40;;;;;;5046396;28;20498;-60
2022/09/10 14:38:25;;;;;;;;;;;23.50;93.40;;;;;;5042223;28;19929;-61
2022/09/10 14:41:15;;;;;;;;;;;23.50;93.40;;;;;;5042450;28;19932;-60
2022/09/10 14:43:42;;;;;;;;;;;23.50;93.40;;;;;;5047764;28;19955;-58